Terminal Aerodrome Forecast
Issued by NWS

Home | Current Version | Previous Version | Text Only | Print | Product List | Glossary On
Versions: 1 2 3 4 5 6 7 8 9 10 11 12 13 14 15 16 17 18 19 20 21 22 23 24 25 26 27 28 29 30 31 32 33 34 35 36
000
FTUS46 KOTX 200724 AAA
TAFSFF
TAF AMD
KSFF 200724Z 2007/2106 06004KT P6SM SCT050 BKN100
     FM201100 VRB03KT 6SM BR VCFG FEW002 SCT050 BKN100
     FM201600 08005KT P6SM SCT008 SCT100 SCT250
     FM210400 07005KT P6SM VCSH OVC080=

USA.gov is the U.S. government's official web portal to all federal, state and local government web resources and services.